Alley Springs, Missouri
Current Conditions -  °F | °C
As of 5:53 AM on Saturday 25 Oct 2014 (Local Time) from KUNO Reporting Station
Haze Haze  
Wind Chill: 58°   Ceiling: Unl
Heat Index: 58°   Visibility: 6mi
Dew Point: 56°   Wind: 9mph
Humidity: 93%   Direction: 250°WSW
Pressure: 30.08"   Gusts: NA
Location:  37.1833°N, 91.4819°W
Report Text: KUNO 251053Z AUTO 25008KT 6SM BR CLR 14/13 A3008 RMK AO2 SLP178 T01440133
Loading
Personal Weather Stations






























Interactive Weather Map
Tropical Storm Tracking
New forecast layout! Learn more

10-Day Weather Forecast

Advertisements
Track Severe Weather on mobile